DLH4MA EDDH-EDDF
Flight info
| Callsign | DLH4MA |
|---|---|
| Flight time | 0h 56m |
| Altitude | 30000 |
| Route | AMLUH2C/05 AMLUH M852 DENIX DCT RIMET/N0449F310 T157 KOKEB/N0392F230 T157 KERAX KERAX5A |
| Aircraft | A21N/M-SDE2E3FGHIRWXY/LB1 |
Departure
| Time | 2026-05-07 10:35 |
|---|---|
| Airport | Hamburg Helmut Schmidt Airport (EDDH) |
Arrival
| Time | 2026-05-07 11:32 |
|---|---|
| Airport | Frankfurt Main Airport (EDDF) |
| Time | Latitude | Longitude | Altitude | Speed | Heading |
|---|---|---|---|---|---|
| 2026-05-07 10:09 | 53.63006 | 10.00366 | 41 ft | 0 kts | 122° |
| 2026-05-07 10:23 | 53.63007 | 10.00364 | 52 ft | 2 kts | 122° |
| 2026-05-07 10:24 | 53.63022 | 10.00330 | 48 ft | 4 kts | 131° |
| 2026-05-07 10:24 | 53.63041 | 10.00298 | 51 ft | 4 kts | 143° |
| 2026-05-07 10:24 | 53.63064 | 10.00275 | 53 ft | 4 kts | 156° |
| 2026-05-07 10:24 | 53.63089 | 10.00261 | 50 ft | 4 kts | 173° |
| 2026-05-07 10:25 | 53.63095 | 10.00260 | 49 ft | 1 kts | 176° |
| 2026-05-07 10:30 | 53.63085 | 10.00260 | 27 ft | 2 kts | 184° |
| 2026-05-07 10:30 | 53.63062 | 10.00250 | 67 ft | 4 kts | 199° |
| 2026-05-07 10:30 | 53.63029 | 10.00221 | 50 ft | 6 kts | 211° |
| 2026-05-07 10:31 | 53.62986 | 10.00176 | 50 ft | 8 kts | 213° |
| 2026-05-07 10:31 | 53.62930 | 10.00115 | 51 ft | 11 kts | 212° |
| 2026-05-07 10:31 | 53.62864 | 10.00038 | 50 ft | 13 kts | 226° |
| 2026-05-07 10:31 | 53.62786 | 9.99945 | 49 ft | 15 kts | 207° |
| 2026-05-07 10:32 | 53.62686 | 9.99856 | 51 ft | 17 kts | 209° |
| 2026-05-07 10:32 | 53.62627 | 9.99687 | 49 ft | 19 kts | 263° |
| 2026-05-07 10:32 | 53.62606 | 9.99461 | 47 ft | 20 kts | 258° |
| 2026-05-07 10:32 | 53.62577 | 9.99215 | 47 ft | 22 kts | 258° |
| 2026-05-07 10:33 | 53.62545 | 9.98948 | 51 ft | 24 kts | 258° |
| 2026-05-07 10:33 | 53.62515 | 9.98664 | 51 ft | 25 kts | 259° |
| 2026-05-07 10:33 | 53.62478 | 9.98369 | 47 ft | 19 kts | 258° |
| 2026-05-07 10:33 | 53.62450 | 9.98181 | 50 ft | 18 kts | 245° |
| 2026-05-07 10:34 | 53.62382 | 9.97998 | 50 ft | 19 kts | 233° |
| 2026-05-07 10:34 | 53.62291 | 9.97816 | 49 ft | 21 kts | 230° |
| 2026-05-07 10:34 | 53.62197 | 9.97610 | 49 ft | 23 kts | 239° |
| 2026-05-07 10:34 | 53.62240 | 9.97380 | 50 ft | 24 kts | 340° |
| 2026-05-07 10:35 | 53.62401 | 9.97539 | 50 ft | 50 kts | 49° |
| 2026-05-07 10:35 | 53.62801 | 9.98355 | 54 ft | 127 kts | 50° |
| 2026-05-07 10:35 | 53.63478 | 9.99676 | 336 ft | 156 kts | 51° |
| 2026-05-07 10:35 | 53.64215 | 10.01166 | 1201 ft | 176 kts | 52° |
| 2026-05-07 10:36 | 53.65060 | 10.02907 | 1895 ft | 203 kts | 51° |
| 2026-05-07 10:36 | 53.65965 | 10.04759 | 2855 ft | 203 kts | 52° |
| 2026-05-07 10:36 | 53.66852 | 10.06584 | 3819 ft | 206 kts | 53° |
| 2026-05-07 10:36 | 53.67769 | 10.08468 | 4848 ft | 211 kts | 52° |
| 2026-05-07 10:37 | 53.68711 | 10.10410 | 5811 ft | 216 kts | 52° |
| 2026-05-07 10:37 | 53.69672 | 10.12398 | 6750 ft | 221 kts | 54° |
| 2026-05-07 10:37 | 53.70389 | 10.14691 | 7591 ft | 224 kts | 76° |
| 2026-05-07 10:37 | 53.70390 | 10.17309 | 8465 ft | 227 kts | 104° |
| 2026-05-07 10:38 | 53.69612 | 10.19713 | 9020 ft | 249 kts | 134° |
| 2026-05-07 10:38 | 53.68061 | 10.21271 | 9415 ft | 275 kts | 161° |
| 2026-05-07 10:38 | 53.66155 | 10.22083 | 9926 ft | 288 kts | 167° |
| 2026-05-07 10:38 | 53.64155 | 10.22865 | 10086 ft | 310 kts | 166° |
| 2026-05-07 10:39 | 53.61952 | 10.23777 | 10125 ft | 342 kts | 165° |
| 2026-05-07 10:39 | 53.59549 | 10.24816 | 10122 ft | 364 kts | 165° |
| 2026-05-07 10:39 | 53.57098 | 10.25904 | 10286 ft | 364 kts | 165° |
| 2026-05-07 10:39 | 53.54637 | 10.27003 | 10993 ft | 368 kts | 165° |
| 2026-05-07 10:40 | 53.52151 | 10.28106 | 11831 ft | 371 kts | 165° |
| 2026-05-07 10:40 | 53.49654 | 10.29216 | 12704 ft | 373 kts | 165° |
| 2026-05-07 10:40 | 53.47136 | 10.30338 | 13562 ft | 376 kts | 165° |
| 2026-05-07 10:40 | 53.44663 | 10.31443 | 14286 ft | 379 kts | 165° |
| 2026-05-07 10:41 | 53.42106 | 10.32590 | 15014 ft | 382 kts | 165° |
| 2026-05-07 10:41 | 53.39526 | 10.33755 | 15729 ft | 385 kts | 165° |
| 2026-05-07 10:41 | 53.36928 | 10.34925 | 16479 ft | 388 kts | 166° |
| 2026-05-07 10:41 | 53.34319 | 10.36099 | 17290 ft | 389 kts | 166° |
| 2026-05-07 10:42 | 53.31691 | 10.37277 | 17988 ft | 394 kts | 166° |
| 2026-05-07 10:42 | 53.29029 | 10.38469 | 18598 ft | 399 kts | 166° |
| 2026-05-07 10:42 | 53.26335 | 10.39679 | 19158 ft | 403 kts | 166° |
| 2026-05-07 10:42 | 53.23608 | 10.40899 | 19717 ft | 408 kts | 166° |
| 2026-05-07 10:43 | 53.20856 | 10.42129 | 20282 ft | 412 kts | 166° |
| 2026-05-07 10:43 | 53.18071 | 10.43370 | 20855 ft | 416 kts | 166° |
| 2026-05-07 10:43 | 53.15263 | 10.44605 | 21439 ft | 419 kts | 167° |
| 2026-05-07 10:43 | 53.12386 | 10.45389 | 21983 ft | 421 kts | 177° |
| 2026-05-07 10:44 | 53.09454 | 10.45354 | 22530 ft | 423 kts | 185° |
| 2026-05-07 10:44 | 53.06504 | 10.44934 | 23063 ft | 427 kts | 186° |
| 2026-05-07 10:44 | 53.03539 | 10.44459 | 23588 ft | 430 kts | 186° |
| 2026-05-07 10:44 | 53.00538 | 10.43999 | 24015 ft | 435 kts | 186° |
| 2026-05-07 10:45 | 52.97517 | 10.43561 | 24487 ft | 437 kts | 185° |
| 2026-05-07 10:45 | 52.94479 | 10.43135 | 24951 ft | 440 kts | 185° |
| 2026-05-07 10:45 | 52.91423 | 10.42719 | 25422 ft | 442 kts | 185° |
| 2026-05-07 10:45 | 52.88344 | 10.42302 | 25820 ft | 446 kts | 185° |
| 2026-05-07 10:46 | 52.85239 | 10.41882 | 26297 ft | 447 kts | 185° |
| 2026-05-07 10:46 | 52.82140 | 10.41465 | 26885 ft | 446 kts | 184° |
| 2026-05-07 10:46 | 52.79061 | 10.41049 | 27560 ft | 442 kts | 184° |
| 2026-05-07 10:46 | 52.76015 | 10.40639 | 28287 ft | 437 kts | 184° |
| 2026-05-07 10:47 | 52.72997 | 10.40236 | 28984 ft | 433 kts | 184° |
| 2026-05-07 10:47 | 52.69996 | 10.39833 | 29504 ft | 433 kts | 184° |
| 2026-05-07 10:47 | 52.66987 | 10.39430 | 29927 ft | 435 kts | 184° |
| 2026-05-07 10:47 | 52.63964 | 10.39024 | 30071 ft | 436 kts | 184° |
| 2026-05-07 10:48 | 52.57920 | 10.38211 | 30059 ft | 436 kts | 183° |
| 2026-05-07 10:48 | 52.51869 | 10.37399 | 30049 ft | 437 kts | 183° |
| 2026-05-07 10:49 | 52.45811 | 10.36589 | 30048 ft | 437 kts | 183° |
| 2026-05-07 10:49 | 52.39753 | 10.35780 | 30048 ft | 437 kts | 183° |
| 2026-05-07 10:50 | 52.33693 | 10.34974 | 30053 ft | 437 kts | 183° |
| 2026-05-07 10:50 | 52.27642 | 10.34172 | 30048 ft | 436 kts | 183° |
| 2026-05-07 10:51 | 52.21603 | 10.33372 | 30044 ft | 435 kts | 183° |
| 2026-05-07 10:51 | 52.15572 | 10.32577 | 30037 ft | 434 kts | 183° |
| 2026-05-07 10:52 | 52.09546 | 10.31783 | 30029 ft | 434 kts | 183° |
| 2026-05-07 10:52 | 52.03534 | 10.30997 | 30014 ft | 432 kts | 184° |
| 2026-05-07 10:53 | 51.97549 | 10.30213 | 30006 ft | 431 kts | 184° |
| 2026-05-07 10:53 | 51.91616 | 10.29439 | 30005 ft | 430 kts | 184° |
| 2026-05-07 10:54 | 51.85651 | 10.28661 | 30007 ft | 430 kts | 184° |
| 2026-05-07 10:54 | 51.79699 | 10.27886 | 29988 ft | 429 kts | 185° |
| 2026-05-07 10:55 | 51.73759 | 10.27118 | 29991 ft | 428 kts | 185° |
| 2026-05-07 10:55 | 51.67830 | 10.26349 | 29989 ft | 427 kts | 185° |
| 2026-05-07 10:56 | 51.62867 | 10.25711 | 29990 ft | 427 kts | 185° |
| 2026-05-07 10:56 | 51.56950 | 10.24953 | 29986 ft | 426 kts | 185° |
| 2026-05-07 10:57 | 51.51045 | 10.24197 | 29984 ft | 425 kts | 185° |
| 2026-05-07 10:57 | 51.45158 | 10.23446 | 29982 ft | 424 kts | 186° |
| 2026-05-07 10:58 | 51.39434 | 10.22720 | 29973 ft | 398 kts | 186° |
| 2026-05-07 10:58 | 51.36709 | 10.22374 | 29963 ft | 378 kts | 186° |
| 2026-05-07 10:58 | 51.34178 | 10.22052 | 29951 ft | 361 kts | 187° |
| 2026-05-07 10:59 | 51.31753 | 10.21629 | 29939 ft | 340 kts | 196° |
| 2026-05-07 10:59 | 51.29652 | 10.20141 | 29950 ft | 328 kts | 215° |
| 2026-05-07 10:59 | 51.27977 | 10.17702 | 29966 ft | 327 kts | 231° |
| 2026-05-07 10:59 | 51.26806 | 10.14590 | 29976 ft | 329 kts | 246° |
| 2026-05-07 11:00 | 51.26241 | 10.11037 | 29979 ft | 334 kts | 262° |
| 2026-05-07 11:00 | 51.26327 | 10.07297 | 29986 ft | 342 kts | 276° |
| 2026-05-07 11:00 | 51.27070 | 10.03655 | 29982 ft | 350 kts | 294° |
| 2026-05-07 11:00 | 51.28579 | 10.00571 | 29982 ft | 359 kts | 314° |
| 2026-05-07 11:01 | 51.30665 | 9.98322 | 29986 ft | 369 kts | 331° |
| 2026-05-07 11:01 | 51.33133 | 9.97084 | 29989 ft | 377 kts | 350° |
| 2026-05-07 11:01 | 51.35762 | 9.97043 | 29996 ft | 380 kts | 2° |
| 2026-05-07 11:01 | 51.38402 | 9.97435 | 30001 ft | 381 kts | 4° |
| 2026-05-07 11:02 | 51.43661 | 9.98307 | 29986 ft | 379 kts | 4° |
| 2026-05-07 11:02 | 51.48874 | 9.99226 | 29984 ft | 376 kts | 6° |
| 2026-05-07 11:03 | 51.51423 | 10.00131 | 29983 ft | 376 kts | 20° |
| 2026-05-07 11:03 | 51.53687 | 10.02183 | 29988 ft | 375 kts | 41° |
| 2026-05-07 11:03 | 51.55391 | 10.05313 | 29990 ft | 373 kts | 61° |
| 2026-05-07 11:03 | 51.56403 | 10.09124 | 29990 ft | 371 kts | 79° |
| 2026-05-07 11:04 | 51.56603 | 10.13194 | 29985 ft | 363 kts | 100° |
| 2026-05-07 11:04 | 51.55924 | 10.17013 | 29988 ft | 354 kts | 121° |
| 2026-05-07 11:04 | 51.54524 | 10.20228 | 29999 ft | 351 kts | 137° |
| 2026-05-07 11:04 | 51.52630 | 10.22614 | 29987 ft | 344 kts | 155° |
| 2026-05-07 11:05 | 51.50430 | 10.23952 | 29986 ft | 336 kts | 172° |
| 2026-05-07 11:05 | 51.48112 | 10.24180 | 29996 ft | 335 kts | 186° |
| 2026-05-07 11:05 | 51.43471 | 10.23409 | 29993 ft | 336 kts | 188° |
| 2026-05-07 11:06 | 51.38833 | 10.22697 | 29991 ft | 335 kts | 187° |
| 2026-05-07 11:06 | 51.34081 | 10.22263 | 29992 ft | 354 kts | 184° |
| 2026-05-07 11:07 | 51.31582 | 10.22182 | 29999 ft | 366 kts | 184° |
| 2026-05-07 11:07 | 51.28997 | 10.22094 | 29998 ft | 378 kts | 184° |
| 2026-05-07 11:07 | 51.26319 | 10.21999 | 29997 ft | 389 kts | 184° |
| 2026-05-07 11:07 | 51.23582 | 10.21898 | 29995 ft | 399 kts | 184° |
| 2026-05-07 11:08 | 51.17890 | 10.21680 | 29992 ft | 418 kts | 184° |
| 2026-05-07 11:08 | 51.12054 | 10.21482 | 29981 ft | 420 kts | 184° |
| 2026-05-07 11:09 | 51.06218 | 10.21393 | 29976 ft | 419 kts | 184° |
| 2026-05-07 11:09 | 51.03310 | 10.21349 | 29785 ft | 416 kts | 184° |
| 2026-05-07 11:09 | 51.00406 | 10.21298 | 28590 ft | 421 kts | 184° |
| 2026-05-07 11:10 | 50.97505 | 10.21245 | 27547 ft | 424 kts | 184° |
| 2026-05-07 11:10 | 50.94547 | 10.21192 | 26635 ft | 425 kts | 184° |
| 2026-05-07 11:10 | 50.91597 | 10.21139 | 25870 ft | 423 kts | 183° |
| 2026-05-07 11:10 | 50.88672 | 10.21088 | 25168 ft | 419 kts | 183° |
| 2026-05-07 11:11 | 50.85783 | 10.20885 | 24465 ft | 412 kts | 191° |
| 2026-05-07 11:11 | 50.83054 | 10.19682 | 23786 ft | 404 kts | 204° |
| 2026-05-07 11:11 | 50.80595 | 10.17618 | 23054 ft | 397 kts | 214° |
| 2026-05-07 11:11 | 50.78466 | 10.14921 | 22197 ft | 389 kts | 223° |
| 2026-05-07 11:12 | 50.76634 | 10.11839 | 21179 ft | 381 kts | 229° |
| 2026-05-07 11:12 | 50.74930 | 10.08683 | 20421 ft | 374 kts | 229° |
| 2026-05-07 11:12 | 50.73268 | 10.05572 | 19757 ft | 366 kts | 229° |
| 2026-05-07 11:12 | 50.71633 | 10.02526 | 18764 ft | 364 kts | 229° |
| 2026-05-07 11:13 | 50.69978 | 9.99464 | 17578 ft | 369 kts | 228° |
| 2026-05-07 11:13 | 50.68085 | 9.96675 | 16413 ft | 374 kts | 219° |
| 2026-05-07 11:13 | 50.66035 | 9.94158 | 15365 ft | 374 kts | 218° |
| 2026-05-07 11:13 | 50.63980 | 9.91661 | 14380 ft | 372 kts | 218° |
| 2026-05-07 11:14 | 50.61945 | 9.89162 | 13408 ft | 370 kts | 218° |
| 2026-05-07 11:14 | 50.59929 | 9.86669 | 12464 ft | 366 kts | 219° |
| 2026-05-07 11:14 | 50.57972 | 9.84238 | 11561 ft | 362 kts | 219° |
| 2026-05-07 11:14 | 50.55981 | 9.81765 | 10678 ft | 357 kts | 219° |
| 2026-05-07 11:15 | 50.54046 | 9.79364 | 9824 ft | 352 kts | 219° |
| 2026-05-07 11:15 | 50.52134 | 9.76996 | 8898 ft | 348 kts | 219° |
| 2026-05-07 11:15 | 50.50246 | 9.74660 | 8002 ft | 343 kts | 219° |
| 2026-05-07 11:15 | 50.48383 | 9.72357 | 7131 ft | 339 kts | 219° |
| 2026-05-07 11:16 | 50.46542 | 9.70083 | 6261 ft | 333 kts | 219° |
| 2026-05-07 11:16 | 50.44767 | 9.67893 | 5534 ft | 317 kts | 219° |
| 2026-05-07 11:16 | 50.43092 | 9.65830 | 5162 ft | 293 kts | 219° |
| 2026-05-07 11:16 | 50.41563 | 9.63949 | 5011 ft | 266 kts | 219° |
| 2026-05-07 11:17 | 50.40162 | 9.62226 | 4956 ft | 253 kts | 219° |
| 2026-05-07 11:17 | 50.38763 | 9.60507 | 4976 ft | 259 kts | 219° |
| 2026-05-07 11:17 | 50.37340 | 9.58760 | 4984 ft | 260 kts | 219° |
| 2026-05-07 11:17 | 50.36131 | 9.56724 | 4961 ft | 257 kts | 242° |
| 2026-05-07 11:18 | 50.35291 | 9.54253 | 4957 ft | 258 kts | 232° |
| 2026-05-07 11:18 | 50.34062 | 9.52184 | 4966 ft | 261 kts | 225° |
| 2026-05-07 11:18 | 50.32777 | 9.50269 | 4964 ft | 256 kts | 225° |
| 2026-05-07 11:18 | 50.31546 | 9.48219 | 4969 ft | 259 kts | 228° |
| 2026-05-07 11:19 | 50.30342 | 9.46126 | 4963 ft | 259 kts | 229° |
| 2026-05-07 11:19 | 50.29142 | 9.44025 | 4959 ft | 260 kts | 229° |
| 2026-05-07 11:19 | 50.27946 | 9.41935 | 4966 ft | 257 kts | 229° |
| 2026-05-07 11:19 | 50.26742 | 9.39839 | 4974 ft | 259 kts | 229° |
| 2026-05-07 11:20 | 50.25549 | 9.37760 | 4920 ft | 252 kts | 229° |
| 2026-05-07 11:20 | 50.24394 | 9.35749 | 4605 ft | 247 kts | 229° |
| 2026-05-07 11:20 | 50.23239 | 9.33741 | 4146 ft | 252 kts | 229° |
| 2026-05-07 11:20 | 50.22068 | 9.31694 | 3970 ft | 251 kts | 229° |
| 2026-05-07 11:21 | 50.21291 | 9.30339 | 3952 ft | 254 kts | 229° |
| 2026-05-07 11:21 | 50.20659 | 9.29119 | 3933 ft | 254 kts | 238° |
| 2026-05-07 11:21 | 50.20011 | 9.26582 | 3944 ft | 255 kts | 261° |
| 2026-05-07 11:21 | 50.19920 | 9.23838 | 3963 ft | 252 kts | 268° |
| 2026-05-07 11:22 | 50.19897 | 9.21082 | 3968 ft | 254 kts | 266° |
| 2026-05-07 11:22 | 50.19372 | 9.18543 | 3964 ft | 241 kts | 236° |
| 2026-05-07 11:22 | 50.18365 | 9.16580 | 3969 ft | 224 kts | 230° |
| 2026-05-07 11:22 | 50.17438 | 9.14626 | 3978 ft | 229 kts | 239° |
| 2026-05-07 11:23 | 50.16698 | 9.12242 | 4002 ft | 254 kts | 247° |
| 2026-05-07 11:23 | 50.16042 | 9.09680 | 3994 ft | 255 kts | 249° |
| 2026-05-07 11:23 | 50.15414 | 9.07098 | 3970 ft | 255 kts | 249° |
| 2026-05-07 11:23 | 50.14878 | 9.04503 | 3970 ft | 254 kts | 252° |
| 2026-05-07 11:24 | 50.14315 | 9.01969 | 3967 ft | 235 kts | 249° |
| 2026-05-07 11:24 | 50.13762 | 8.99669 | 3959 ft | 218 kts | 249° |
| 2026-05-07 11:24 | 50.13275 | 8.97620 | 3962 ft | 211 kts | 249° |
| 2026-05-07 11:24 | 50.12779 | 8.95529 | 3955 ft | 193 kts | 249° |
| 2026-05-07 11:25 | 50.12341 | 8.93686 | 3993 ft | 168 kts | 250° |
| 2026-05-07 11:25 | 50.11970 | 8.92125 | 3971 ft | 144 kts | 249° |
| 2026-05-07 11:25 | 50.11630 | 8.90693 | 3985 ft | 133 kts | 250° |
| 2026-05-07 11:25 | 50.11311 | 8.89353 | 3986 ft | 131 kts | 250° |
| 2026-05-07 11:26 | 50.10994 | 8.88017 | 3985 ft | 132 kts | 249° |
| 2026-05-07 11:26 | 50.10677 | 8.86682 | 3982 ft | 131 kts | 249° |
| 2026-05-07 11:26 | 50.10360 | 8.85351 | 3981 ft | 132 kts | 249° |
| 2026-05-07 11:26 | 50.10042 | 8.84012 | 3904 ft | 132 kts | 249° |
| 2026-05-07 11:27 | 50.09731 | 8.82703 | 3770 ft | 130 kts | 249° |
| 2026-05-07 11:27 | 50.09416 | 8.81381 | 3604 ft | 129 kts | 249° |
| 2026-05-07 11:27 | 50.09103 | 8.80063 | 3429 ft | 131 kts | 249° |
| 2026-05-07 11:27 | 50.08790 | 8.78748 | 3268 ft | 128 kts | 249° |
| 2026-05-07 11:28 | 50.08478 | 8.77436 | 3094 ft | 130 kts | 249° |
| 2026-05-07 11:28 | 50.08164 | 8.76119 | 2917 ft | 129 kts | 249° |
| 2026-05-07 11:28 | 50.07852 | 8.74805 | 2726 ft | 130 kts | 249° |
| 2026-05-07 11:28 | 50.07537 | 8.73483 | 2556 ft | 130 kts | 250° |
| 2026-05-07 11:29 | 50.07326 | 8.72114 | 2358 ft | 130 kts | 261° |
| 2026-05-07 11:29 | 50.07148 | 8.70748 | 2084 ft | 129 kts | 256° |
| 2026-05-07 11:29 | 50.06938 | 8.69402 | 1930 ft | 128 kts | 253° |
| 2026-05-07 11:29 | 50.06665 | 8.68088 | 1807 ft | 128 kts | 251° |
| 2026-05-07 11:30 | 50.06392 | 8.66770 | 1617 ft | 128 kts | 251° |
| 2026-05-07 11:30 | 50.06095 | 8.65459 | 1296 ft | 129 kts | 250° |
| 2026-05-07 11:30 | 50.05760 | 8.64163 | 1042 ft | 129 kts | 249° |
| 2026-05-07 11:30 | 50.05443 | 8.62868 | 868 ft | 127 kts | 253° |
| 2026-05-07 11:31 | 50.05142 | 8.61570 | 727 ft | 128 kts | 255° |
| 2026-05-07 11:31 | 50.04868 | 8.60263 | 596 ft | 128 kts | 251° |
| 2026-05-07 11:31 | 50.04572 | 8.58976 | 462 ft | 126 kts | 251° |
| 2026-05-07 11:31 | 50.04280 | 8.57732 | 370 ft | 112 kts | 250° |
| 2026-05-07 11:32 | 50.04071 | 8.56673 | 365 ft | 1 kts | 340° |
| 2026-05-07 11:32 | 50.04106 | 8.56707 | 367 ft | 1 kts | 32° |
| 2026-05-07 11:32 | 50.04114 | 8.56714 | 369 ft | 3 kts | 31° |
| 2026-05-07 11:33 | 50.04125 | 8.56725 | 368 ft | 14 kts | 31° |
| 2026-05-07 11:33 | 50.04317 | 8.56813 | 370 ft | 31 kts | 12° |
| 2026-05-07 11:33 | 50.04415 | 8.56824 | 369 ft | 12 kts | 327° |
| 2026-05-07 11:33 | 50.04415 | 8.56688 | 363 ft | 14 kts | 250° |
| 2026-05-07 11:34 | 50.04378 | 8.56531 | 364 ft | 16 kts | 249° |
| 2026-05-07 11:34 | 50.04339 | 8.56375 | 364 ft | 15 kts | 249° |
| 2026-05-07 11:34 | 50.04300 | 8.56211 | 365 ft | 17 kts | 251° |
| 2026-05-07 11:34 | 50.04265 | 8.56037 | 363 ft | 14 kts | 263° |
| 2026-05-07 11:35 | 50.04333 | 8.55929 | 363 ft | 17 kts | 342° |
| 2026-05-07 11:35 | 50.04456 | 8.55917 | 366 ft | 19 kts | 14° |
| 2026-05-07 11:35 | 50.04571 | 8.56033 | 364 ft | 21 kts | 61° |
| 2026-05-07 11:35 | 50.04619 | 8.56222 | 364 ft | 18 kts | 70° |
| 2026-05-07 11:36 | 50.04664 | 8.56416 | 366 ft | 16 kts | 69° |
| 2026-05-07 11:36 | 50.04707 | 8.56554 | 363 ft | 15 kts | 54° |
| 2026-05-07 11:36 | 50.04766 | 8.56656 | 364 ft | 6 kts | 33° |
| 2026-05-07 11:36 | 50.04792 | 8.56681 | 364 ft | 6 kts | 38° |
| 2026-05-07 11:37 | 50.04795 | 8.56737 | 361 ft | 4 kts | 112° |
| 2026-05-07 11:37 | 50.04793 | 8.56746 | 361 ft | 1 kts | 114° |
| 2026-05-07 11:37 | 50.04789 | 8.56757 | 361 ft | 1 kts | 114° |
| 2026-05-07 11:37 | 50.04788 | 8.56764 | 365 ft | 0 kts | 114° |
| 2026-05-07 11:38 | 50.04786 | 8.56768 | 364 ft | 1 kts | 114° |
| 2026-05-07 11:38 | 50.04785 | 8.56771 | 364 ft | 0 kts | 114° |